Impacts METAR Board
IDs:

KRWV - Caldwell Muni, TX, US

Updated at: 0600 UTC 19 Aug 2019
Potential Impact None Slight Moderate High
Time 18/18Z 18/19Z 18/20Z 18/21Z 18/22Z 18/23Z 19/00Z 19/01Z 19/02Z 19/03Z 19/04Z 19/05Z 19/06Z
Temp96 97 99 99 100 100 94 92 89 87 85 83 81
Dewpt71 69 69 67 67 68 74 74 73 73 74 74 75
Altim29.91 29.90 29.88 29.86 29.84 29.84 29.85 29.86 29.88 29.90 29.93 29.94 29.95
VIS10 10 10 10 10 10 10 10 10 10 10 10 10
CIG50 -- -- -- -- -- -- -- -- -- -- -- --
CoverBKNSCTSCTSCTCLRSCTSCTCLRCLRCLRCLRCLRCLR
FltCatVFRVFRVFRVFRVFRVFRVFRVFRVFRVFRVFRVFRVFR
WX--------------------------
WDir190200180150230150140150150160170180160
WSpd8 7 7 9 7 12 14 12 12 11 6 10 7
WGst19 -- 18 16 16 -- -- 19 18 -- -- -- --
Raw hourly METARs
KRWV 181755Z AUTO 19008G19KT 10SM BKN050 36/22 A2991 RMK AO2 T03560215 10362 20255
KRWV 181855Z AUTO 20007KT 170V230 10SM SCT060 36/20 A2990 RMK AO2 T03610204
KRWV 181955Z AUTO 18007G18KT 10SM SCT060 37/20 A2988 RMK AO2 T03700203
KRWV 182055Z AUTO 15009G16KT 10SM SCT070 37/19 A2986 RMK AO2 T03710194
KRWV 182155Z AUTO 23007G16KT 10SM CLR 38/19 A2984 RMK AO2 LTG DSNT E T03800193
KRWV 182255Z AUTO 15012KT 10SM SCT080 SCT085 38/20 A2984 RMK AO2 T03800198
KRWV 182355Z AUTO 14014KT 10SM SCT075 SCT085 35/24 A2985 RMK AO2 T03460235 10386 20346 403860251
KRWV 190055Z AUTO 15012G19KT 10SM CLR 33/23 A2986 RMK AO2 T03310231
KRWV 190155Z AUTO 15012G18KT 10SM CLR 32/23 A2988 RMK AO2 LTG DSNT E T03180228
KRWV 190255Z AUTO 16011KT 10SM CLR 31/23 A2990 RMK AO2 T03060229
KRWV 190355Z AUTO 17006KT 10SM CLR 29/23 A2993 RMK AO2 T02930231
KRWV 190455Z AUTO 18010KT 10SM CLR 28/23 A2994 RMK AO2 T02840234
KRWV 190555Z AUTO 16007KT 10SM CLR 27/24 A2995 RMK AO2 T02720238 10348 20272



Page loaded:  06:03 UTC  |   11:03 PM Pacific  |   12:03 AM Mountain  |   01:03 AM Central  |   02:03 AM Eastern

 

ADVISORIES

FORECASTS

FORECASTS

OBSERVATIONS

USER TOOLS

ABOUT US